UAL780 KPDX-KIAH
Flight info
| Callsign | UAL780 |
|---|---|
| Flight time | 3h 51m |
| Altitude | 37000 |
| Route | WHAMY5 IMB J15 BOI BYI Q154 KENTO MQP GUSHR3 |
| Aircraft | B38M/M-SDE1FGHILORVWXY/HB1 |
Departure
| Time | 2026-05-08 02:52 |
|---|---|
| Airport | Portland International Airport (KPDX) |
Arrival
| Time | 2026-05-08 06:44 |
|---|---|
| Airport | George Bush Intercontinental Airport (KIAH) |
| Time | Latitude | Longitude | Altitude | Speed | Heading |
|---|---|---|---|---|---|
| 2026-05-08 02:20 | 45.59008 | -122.59126 | 38 ft | 0 kts | 209° |
| 2026-05-08 02:36 | 45.59009 | -122.59125 | 38 ft | 1 kts | 210° |
| 2026-05-08 02:36 | 45.59021 | -122.59116 | 38 ft | 2 kts | 206° |
| 2026-05-08 02:37 | 45.59036 | -122.59106 | 38 ft | 2 kts | 200° |
| 2026-05-08 02:37 | 45.59051 | -122.59099 | 38 ft | 2 kts | 192° |
| 2026-05-08 02:37 | 45.59066 | -122.59096 | 38 ft | 2 kts | 179° |
| 2026-05-08 02:37 | 45.59082 | -122.59098 | 38 ft | 2 kts | 157° |
| 2026-05-08 02:38 | 45.59093 | -122.59108 | 38 ft | 2 kts | 125° |
| 2026-05-08 02:38 | 45.59096 | -122.59113 | 38 ft | 0 kts | 120° |
| 2026-05-08 02:42 | 45.59086 | -122.59090 | 38 ft | 6 kts | 120° |
| 2026-05-08 02:42 | 45.59053 | -122.59006 | 38 ft | 13 kts | 119° |
| 2026-05-08 02:42 | 45.59057 | -122.58849 | 38 ft | 19 kts | 74° |
| 2026-05-08 02:42 | 45.59024 | -122.58654 | 38 ft | 17 kts | 116° |
| 2026-05-08 02:43 | 45.58978 | -122.58535 | 38 ft | 15 kts | 120° |
| 2026-05-08 02:43 | 45.58916 | -122.58385 | 38 ft | 21 kts | 120° |
| 2026-05-08 02:43 | 45.58846 | -122.58202 | 38 ft | 20 kts | 117° |
| 2026-05-08 02:43 | 45.58776 | -122.58016 | 38 ft | 24 kts | 118° |
| 2026-05-08 02:44 | 45.58685 | -122.57792 | 38 ft | 28 kts | 122° |
| 2026-05-08 02:44 | 45.58581 | -122.57540 | 38 ft | 31 kts | 119° |
| 2026-05-08 02:44 | 45.58478 | -122.57281 | 38 ft | 27 kts | 119° |
| 2026-05-08 02:44 | 45.58398 | -122.57077 | 38 ft | 20 kts | 119° |
| 2026-05-08 02:45 | 45.58352 | -122.56946 | 38 ft | 9 kts | 89° |
| 2026-05-08 02:45 | 45.58361 | -122.56920 | 38 ft | 0 kts | 38° |
| 2026-05-08 02:51 | 45.58362 | -122.56919 | 38 ft | 2 kts | 38° |
| 2026-05-08 02:51 | 45.58398 | -122.56882 | 38 ft | 11 kts | 21° |
| 2026-05-08 02:52 | 45.58464 | -122.56951 | 38 ft | 19 kts | 304° |
| 2026-05-08 02:52 | 45.58652 | -122.57439 | 38 ft | 94 kts | 298° |
| 2026-05-08 02:52 | 45.59093 | -122.58521 | 69 ft | 154 kts | 299° |
| 2026-05-08 02:52 | 45.59643 | -122.59924 | 704 ft | 168 kts | 298° |
| 2026-05-08 02:53 | 45.60223 | -122.61331 | 1696 ft | 163 kts | 300° |
| 2026-05-08 02:53 | 45.60786 | -122.62730 | 2480 ft | 168 kts | 292° |
| 2026-05-08 02:53 | 45.61221 | -122.64419 | 2851 ft | 194 kts | 286° |
| 2026-05-08 02:53 | 45.61621 | -122.66384 | 3162 ft | 220 kts | 286° |
| 2026-05-08 02:54 | 45.62239 | -122.68496 | 3653 ft | 234 kts | 295° |
| 2026-05-08 02:54 | 45.63040 | -122.70551 | 4412 ft | 242 kts | 299° |
| 2026-05-08 02:54 | 45.63921 | -122.72664 | 5072 ft | 254 kts | 299° |
| 2026-05-08 02:54 | 45.64815 | -122.74835 | 5943 ft | 257 kts | 299° |
| 2026-05-08 02:55 | 45.65740 | -122.77101 | 6842 ft | 260 kts | 299° |
| 2026-05-08 02:55 | 45.66853 | -122.81944 | 8539 ft | 266 kts | 267° |
| 2026-05-08 02:55 | 45.66547 | -122.84585 | 9396 ft | 270 kts | 260° |
| 2026-05-08 02:56 | 45.66144 | -122.87220 | 10209 ft | 274 kts | 257° |
| 2026-05-08 02:56 | 45.65335 | -122.89706 | 10986 ft | 283 kts | 236° |
| 2026-05-08 02:56 | 45.63834 | -122.91580 | 11731 ft | 295 kts | 213° |
| 2026-05-08 02:56 | 45.61848 | -122.92517 | 12397 ft | 311 kts | 191° |
| 2026-05-08 02:57 | 45.59610 | -122.92370 | 12769 ft | 337 kts | 171° |
| 2026-05-08 02:57 | 45.57354 | -122.91147 | 13042 ft | 360 kts | 157° |
| 2026-05-08 02:57 | 45.55198 | -122.89135 | 13276 ft | 383 kts | 140° |
| 2026-05-08 02:57 | 45.53459 | -122.86127 | 13707 ft | 396 kts | 123° |
| 2026-05-08 02:58 | 45.52159 | -122.82663 | 14312 ft | 402 kts | 116° |
| 2026-05-08 02:58 | 45.50965 | -122.79056 | 14900 ft | 407 kts | 114° |
| 2026-05-08 02:58 | 45.49808 | -122.75350 | 15525 ft | 411 kts | 113° |
| 2026-05-08 02:58 | 45.48632 | -122.71577 | 16144 ft | 414 kts | 113° |
| 2026-05-08 02:59 | 45.47457 | -122.67812 | 16735 ft | 418 kts | 113° |
| 2026-05-08 02:59 | 45.46280 | -122.64048 | 17306 ft | 422 kts | 113° |
| 2026-05-08 02:59 | 45.45084 | -122.60231 | 17869 ft | 425 kts | 113° |
| 2026-05-08 02:59 | 45.43855 | -122.56315 | 18425 ft | 428 kts | 112° |
| 2026-05-08 03:00 | 45.42640 | -122.52447 | 18962 ft | 432 kts | 112° |
| 2026-05-08 03:00 | 45.41407 | -122.48528 | 19459 ft | 435 kts | 113° |
| 2026-05-08 03:00 | 45.40166 | -122.44587 | 20002 ft | 438 kts | 112° |
| 2026-05-08 03:00 | 45.38939 | -122.40627 | 20523 ft | 440 kts | 112° |
| 2026-05-08 03:01 | 45.37714 | -122.36627 | 21016 ft | 443 kts | 111° |
| 2026-05-08 03:01 | 45.36468 | -122.32599 | 21465 ft | 447 kts | 112° |
| 2026-05-08 03:01 | 45.35201 | -122.28545 | 21872 ft | 451 kts | 112° |
| 2026-05-08 03:01 | 45.33919 | -122.24458 | 22279 ft | 455 kts | 114° |
| 2026-05-08 03:02 | 45.32613 | -122.20356 | 22773 ft | 457 kts | 114° |
| 2026-05-08 03:02 | 45.31301 | -122.16239 | 23190 ft | 460 kts | 114° |
| 2026-05-08 03:02 | 45.29982 | -122.12109 | 23605 ft | 463 kts | 114° |
| 2026-05-08 03:02 | 45.28645 | -122.07929 | 24012 ft | 466 kts | 113° |
| 2026-05-08 03:03 | 45.27306 | -122.03741 | 24407 ft | 469 kts | 113° |
| 2026-05-08 03:03 | 45.25939 | -121.99436 | 24742 ft | 473 kts | 114° |
| 2026-05-08 03:03 | 45.24623 | -121.95155 | 25124 ft | 476 kts | 112° |
| 2026-05-08 03:03 | 45.23446 | -121.90761 | 25493 ft | 479 kts | 110° |
| 2026-05-08 03:04 | 45.22329 | -121.86310 | 25854 ft | 481 kts | 109° |
| 2026-05-08 03:04 | 45.21206 | -121.81827 | 26193 ft | 484 kts | 109° |
| 2026-05-08 03:04 | 45.20067 | -121.77327 | 26535 ft | 487 kts | 110° |
| 2026-05-08 03:04 | 45.18912 | -121.72804 | 26862 ft | 490 kts | 110° |
| 2026-05-08 03:05 | 45.17745 | -121.68267 | 27181 ft | 492 kts | 110° |
| 2026-05-08 03:05 | 45.16563 | -121.63696 | 27502 ft | 494 kts | 110° |
| 2026-05-08 03:05 | 45.15373 | -121.59114 | 27807 ft | 497 kts | 110° |
| 2026-05-08 03:05 | 45.14176 | -121.54518 | 28099 ft | 499 kts | 110° |
| 2026-05-08 03:06 | 45.12977 | -121.49892 | 28391 ft | 501 kts | 110° |
| 2026-05-08 03:06 | 45.11792 | -121.45251 | 28675 ft | 504 kts | 110° |
| 2026-05-08 03:06 | 45.10592 | -121.40587 | 28945 ft | 506 kts | 110° |
| 2026-05-08 03:06 | 45.09381 | -121.35910 | 29211 ft | 508 kts | 110° |
| 2026-05-08 03:07 | 45.08159 | -121.31214 | 29473 ft | 510 kts | 110° |
| 2026-05-08 03:07 | 45.06928 | -121.26502 | 29727 ft | 512 kts | 110° |
| 2026-05-08 03:07 | 45.05692 | -121.21788 | 30075 ft | 512 kts | 110° |
| 2026-05-08 03:07 | 45.04461 | -121.17107 | 30438 ft | 511 kts | 110° |
| 2026-05-08 03:08 | 45.03217 | -121.12387 | 30779 ft | 511 kts | 110° |
| 2026-05-08 03:08 | 45.01973 | -121.07680 | 31123 ft | 510 kts | 110° |
| 2026-05-08 03:08 | 45.00715 | -121.02930 | 31528 ft | 508 kts | 110° |
| 2026-05-08 03:08 | 44.99483 | -120.98287 | 31941 ft | 506 kts | 110° |
| 2026-05-08 03:09 | 44.98665 | -120.95212 | 32179 ft | 506 kts | 110° |
| 2026-05-08 03:09 | 44.97151 | -120.89532 | 32626 ft | 504 kts | 110° |
| 2026-05-08 03:09 | 44.95922 | -120.84929 | 33007 ft | 502 kts | 110° |
| 2026-05-08 03:09 | 44.94689 | -120.80319 | 33389 ft | 500 kts | 110° |
| 2026-05-08 03:10 | 44.93462 | -120.75745 | 33767 ft | 498 kts | 110° |
| 2026-05-08 03:10 | 44.92242 | -120.71201 | 34125 ft | 496 kts | 110° |
| 2026-05-08 03:10 | 44.91022 | -120.66666 | 34465 ft | 495 kts | 110° |
| 2026-05-08 03:10 | 44.89803 | -120.62148 | 34816 ft | 493 kts | 110° |
| 2026-05-08 03:11 | 44.88585 | -120.57640 | 35159 ft | 491 kts | 110° |
| 2026-05-08 03:11 | 44.87370 | -120.53150 | 35502 ft | 489 kts | 110° |
| 2026-05-08 03:11 | 44.86159 | -120.48683 | 35827 ft | 488 kts | 110° |
| 2026-05-08 03:11 | 44.84934 | -120.44174 | 36141 ft | 486 kts | 110° |
| 2026-05-08 03:12 | 44.83731 | -120.39752 | 36443 ft | 485 kts | 110° |
| 2026-05-08 03:12 | 44.82521 | -120.35315 | 36751 ft | 483 kts | 110° |
| 2026-05-08 03:12 | 44.81322 | -120.30922 | 37018 ft | 483 kts | 110° |
| 2026-05-08 03:13 | 44.78927 | -120.22177 | 37027 ft | 485 kts | 110° |
| 2026-05-08 03:13 | 44.76479 | -120.13264 | 37024 ft | 482 kts | 110° |
| 2026-05-08 03:14 | 44.74089 | -120.04484 | 37014 ft | 480 kts | 110° |
| 2026-05-08 03:14 | 44.71666 | -119.95732 | 37007 ft | 481 kts | 110° |
| 2026-05-08 03:15 | 44.69624 | -119.88418 | 36994 ft | 481 kts | 110° |
| 2026-05-08 03:15 | 44.67181 | -119.79695 | 36984 ft | 480 kts | 110° |
| 2026-05-08 03:16 | 44.64735 | -119.70961 | 36990 ft | 481 kts | 110° |
| 2026-05-08 03:16 | 44.62229 | -119.62270 | 37023 ft | 481 kts | 111° |
| 2026-05-08 03:17 | 44.59672 | -119.53623 | 37031 ft | 481 kts | 111° |
| 2026-05-08 03:17 | 44.57097 | -119.44929 | 37051 ft | 481 kts | 111° |
| 2026-05-08 03:18 | 44.54543 | -119.36324 | 37052 ft | 480 kts | 111° |
| 2026-05-08 03:18 | 44.51972 | -119.27687 | 37053 ft | 480 kts | 111° |
| 2026-05-08 03:19 | 44.49422 | -119.18978 | 37059 ft | 481 kts | 111° |
| 2026-05-08 03:19 | 44.46880 | -119.10340 | 37058 ft | 480 kts | 111° |
| 2026-05-08 03:20 | 44.44322 | -119.01711 | 37053 ft | 481 kts | 111° |
| 2026-05-08 03:20 | 44.41754 | -118.93095 | 37053 ft | 481 kts | 111° |
| 2026-05-08 03:21 | 44.39168 | -118.84457 | 37053 ft | 481 kts | 111° |
| 2026-05-08 03:21 | 44.36581 | -118.75853 | 37053 ft | 481 kts | 111° |
| 2026-05-08 03:22 | 44.33987 | -118.67255 | 37054 ft | 481 kts | 111° |
| 2026-05-08 03:22 | 44.31367 | -118.58602 | 37054 ft | 481 kts | 111° |
| 2026-05-08 03:23 | 44.28760 | -118.50023 | 37046 ft | 482 kts | 111° |
| 2026-05-08 03:23 | 44.26154 | -118.41477 | 37044 ft | 482 kts | 111° |
| 2026-05-08 03:24 | 44.23511 | -118.32838 | 37040 ft | 482 kts | 111° |
| 2026-05-08 03:24 | 44.20873 | -118.24246 | 37037 ft | 482 kts | 111° |
| 2026-05-08 03:25 | 44.18234 | -118.15676 | 37041 ft | 482 kts | 112° |
| 2026-05-08 03:25 | 44.15588 | -118.07113 | 37036 ft | 482 kts | 112° |
| 2026-05-08 03:26 | 44.12916 | -117.98496 | 37035 ft | 482 kts | 112° |
| 2026-05-08 03:26 | 44.10263 | -117.89967 | 37027 ft | 482 kts | 112° |
| 2026-05-08 03:27 | 44.07595 | -117.81418 | 37004 ft | 482 kts | 112° |
| 2026-05-08 03:27 | 44.04924 | -117.72889 | 37008 ft | 483 kts | 112° |
| 2026-05-08 03:28 | 44.02236 | -117.64332 | 37009 ft | 483 kts | 112° |
| 2026-05-08 03:28 | 43.99504 | -117.55663 | 37003 ft | 483 kts | 112° |
| 2026-05-08 03:29 | 43.96832 | -117.47212 | 37004 ft | 483 kts | 112° |
| 2026-05-08 03:29 | 43.94130 | -117.38696 | 37001 ft | 484 kts | 112° |
| 2026-05-08 03:30 | 43.90054 | -117.25899 | 36995 ft | 484 kts | 112° |
| 2026-05-08 03:31 | 43.84589 | -117.08839 | 36994 ft | 484 kts | 112° |
| 2026-05-08 03:32 | 43.80485 | -116.96098 | 36994 ft | 484 kts | 112° |
| 2026-05-08 03:32 | 43.77743 | -116.87620 | 36994 ft | 483 kts | 112° |
| 2026-05-08 03:33 | 43.74989 | -116.79131 | 36994 ft | 482 kts | 112° |
| 2026-05-08 03:33 | 43.72233 | -116.70663 | 36994 ft | 482 kts | 112° |
| 2026-05-08 03:34 | 43.69477 | -116.62224 | 36994 ft | 481 kts | 112° |
| 2026-05-08 03:34 | 43.66737 | -116.53775 | 36994 ft | 482 kts | 112° |
| 2026-05-08 03:35 | 43.63989 | -116.45394 | 36994 ft | 482 kts | 112° |
| 2026-05-08 03:35 | 43.61215 | -116.37003 | 36993 ft | 481 kts | 112° |
| 2026-05-08 03:36 | 43.58408 | -116.28549 | 36993 ft | 481 kts | 112° |
| 2026-05-08 03:36 | 43.55584 | -116.20059 | 36991 ft | 481 kts | 112° |
| 2026-05-08 03:37 | 43.52471 | -116.11917 | 36992 ft | 482 kts | 117° |
| 2026-05-08 03:37 | 43.49168 | -116.03895 | 36993 ft | 482 kts | 117° |
| 2026-05-08 03:38 | 43.45872 | -115.95858 | 36989 ft | 482 kts | 117° |
| 2026-05-08 03:38 | 43.42586 | -115.87843 | 36988 ft | 482 kts | 117° |
| 2026-05-08 03:39 | 43.39295 | -115.79820 | 36983 ft | 481 kts | 117° |
| 2026-05-08 03:39 | 43.36044 | -115.71809 | 36976 ft | 480 kts | 117° |
| 2026-05-08 03:40 | 43.32768 | -115.63751 | 36978 ft | 481 kts | 117° |
| 2026-05-08 03:40 | 43.29500 | -115.55756 | 36978 ft | 481 kts | 117° |
| 2026-05-08 03:41 | 43.26223 | -115.47776 | 36982 ft | 480 kts | 117° |
| 2026-05-08 03:41 | 43.22942 | -115.39813 | 36985 ft | 480 kts | 117° |
| 2026-05-08 03:42 | 43.19633 | -115.31807 | 36991 ft | 480 kts | 117° |
| 2026-05-08 03:42 | 43.16335 | -115.23853 | 37003 ft | 481 kts | 117° |
| 2026-05-08 03:43 | 43.13051 | -115.15951 | 37003 ft | 480 kts | 117° |
| 2026-05-08 03:43 | 43.09709 | -115.07936 | 37002 ft | 480 kts | 117° |
| 2026-05-08 03:44 | 43.06402 | -115.00026 | 37014 ft | 480 kts | 117° |
| 2026-05-08 03:44 | 43.03086 | -114.92115 | 37023 ft | 480 kts | 117° |
| 2026-05-08 03:45 | 42.99767 | -114.84217 | 37024 ft | 480 kts | 117° |
| 2026-05-08 03:45 | 42.96440 | -114.76323 | 37024 ft | 480 kts | 117° |
| 2026-05-08 03:46 | 42.93096 | -114.68411 | 37024 ft | 479 kts | 117° |
| 2026-05-08 03:46 | 42.89763 | -114.60544 | 37024 ft | 479 kts | 117° |
| 2026-05-08 03:47 | 42.86411 | -114.52656 | 37024 ft | 485 kts | 117° |
| 2026-05-08 03:47 | 42.83026 | -114.44709 | 37023 ft | 485 kts | 117° |
| 2026-05-08 03:48 | 42.79652 | -114.36810 | 37024 ft | 484 kts | 117° |
| 2026-05-08 03:48 | 42.76237 | -114.28836 | 37024 ft | 485 kts | 117° |
| 2026-05-08 03:49 | 42.72861 | -114.20925 | 37023 ft | 484 kts | 117° |
| 2026-05-08 03:49 | 42.69476 | -114.13034 | 37019 ft | 485 kts | 117° |
| 2026-05-08 03:50 | 42.66060 | -114.05138 | 37007 ft | 485 kts | 118° |
| 2026-05-08 03:50 | 42.62640 | -113.97264 | 37005 ft | 485 kts | 118° |
| 2026-05-08 03:51 | 42.59183 | -113.89320 | 37009 ft | 485 kts | 118° |
| 2026-05-08 03:51 | 42.55634 | -113.81487 | 36999 ft | 486 kts | 121° |
| 2026-05-08 03:52 | 42.51945 | -113.73856 | 36995 ft | 486 kts | 121° |
| 2026-05-08 03:52 | 42.48236 | -113.66179 | 36994 ft | 486 kts | 121° |
| 2026-05-08 03:53 | 42.45144 | -113.59778 | 36994 ft | 486 kts | 121° |
| 2026-05-08 03:53 | 42.41448 | -113.52135 | 36994 ft | 486 kts | 121° |
| 2026-05-08 03:54 | 42.37766 | -113.44490 | 36994 ft | 486 kts | 120° |
| 2026-05-08 03:54 | 42.34068 | -113.36782 | 36994 ft | 486 kts | 120° |
| 2026-05-08 03:55 | 42.30380 | -113.29140 | 36994 ft | 486 kts | 120° |
| 2026-05-08 03:55 | 42.26686 | -113.21516 | 36994 ft | 486 kts | 121° |
| 2026-05-08 03:56 | 42.22985 | -113.13903 | 36994 ft | 487 kts | 121° |
| 2026-05-08 03:56 | 42.19271 | -113.06288 | 36994 ft | 487 kts | 121° |
| 2026-05-08 03:57 | 42.15528 | -112.98632 | 36994 ft | 487 kts | 121° |
| 2026-05-08 03:57 | 42.11801 | -112.91030 | 36994 ft | 486 kts | 121° |
| 2026-05-08 03:58 | 42.08075 | -112.83449 | 36995 ft | 487 kts | 121° |
| 2026-05-08 03:58 | 42.04338 | -112.75862 | 36995 ft | 487 kts | 121° |
| 2026-05-08 03:59 | 42.00572 | -112.68239 | 36995 ft | 486 kts | 121° |
| 2026-05-08 03:59 | 41.96861 | -112.60685 | 36999 ft | 485 kts | 121° |
| 2026-05-08 04:00 | 41.93103 | -112.53110 | 37002 ft | 486 kts | 122° |
| 2026-05-08 04:00 | 41.89371 | -112.45629 | 37007 ft | 485 kts | 122° |
| 2026-05-08 04:01 | 41.85617 | -112.38127 | 37015 ft | 484 kts | 122° |
| 2026-05-08 04:01 | 41.81821 | -112.30596 | 37019 ft | 485 kts | 124° |
| 2026-05-08 04:02 | 41.77653 | -112.23592 | 37022 ft | 484 kts | 128° |
| 2026-05-08 04:02 | 41.73326 | -112.16561 | 37023 ft | 484 kts | 128° |
| 2026-05-08 04:03 | 41.69064 | -112.09605 | 37022 ft | 485 kts | 128° |
| 2026-05-08 04:03 | 41.62666 | -111.99151 | 37023 ft | 483 kts | 127° |
| 2026-05-08 04:04 | 41.58447 | -111.92219 | 37024 ft | 482 kts | 127° |
| 2026-05-08 04:04 | 41.54220 | -111.85270 | 37023 ft | 483 kts | 127° |
| 2026-05-08 04:05 | 41.49948 | -111.78279 | 37023 ft | 483 kts | 127° |
| 2026-05-08 04:05 | 41.45729 | -111.71399 | 37030 ft | 479 kts | 127° |
| 2026-05-08 04:06 | 41.41372 | -111.64312 | 37037 ft | 479 kts | 127° |
| 2026-05-08 04:06 | 41.37054 | -111.57296 | 37032 ft | 480 kts | 127° |
| 2026-05-08 04:07 | 41.32842 | -111.50440 | 37054 ft | 479 kts | 127° |
| 2026-05-08 04:07 | 41.28613 | -111.43617 | 37080 ft | 479 kts | 127° |
| 2026-05-08 04:08 | 41.24371 | -111.36800 | 37099 ft | 479 kts | 127° |
| 2026-05-08 04:08 | 41.20120 | -111.29982 | 37114 ft | 480 kts | 128° |
| 2026-05-08 04:09 | 41.15863 | -111.23096 | 37127 ft | 479 kts | 126° |
| 2026-05-08 04:09 | 41.11990 | -111.15922 | 37138 ft | 479 kts | 122° |
| 2026-05-08 04:10 | 41.08173 | -111.08707 | 37142 ft | 479 kts | 123° |
| 2026-05-08 04:10 | 41.04331 | -111.01532 | 37153 ft | 479 kts | 123° |
| 2026-05-08 04:11 | 41.00440 | -110.94318 | 37152 ft | 479 kts | 123° |
| 2026-05-08 04:11 | 40.96569 | -110.87165 | 37153 ft | 479 kts | 123° |
| 2026-05-08 04:12 | 40.92711 | -110.79988 | 37148 ft | 479 kts | 123° |
| 2026-05-08 04:12 | 40.88851 | -110.72855 | 37150 ft | 479 kts | 123° |
| 2026-05-08 04:13 | 40.84969 | -110.65715 | 37153 ft | 479 kts | 124° |
| 2026-05-08 04:13 | 40.81054 | -110.58539 | 37146 ft | 479 kts | 124° |
| 2026-05-08 04:14 | 40.77158 | -110.51418 | 37132 ft | 478 kts | 124° |
| 2026-05-08 04:14 | 40.73264 | -110.44319 | 37117 ft | 478 kts | 124° |
| 2026-05-08 04:15 | 40.69370 | -110.37239 | 37097 ft | 478 kts | 124° |
| 2026-05-08 04:15 | 40.65478 | -110.30177 | 37078 ft | 477 kts | 124° |
| 2026-05-08 04:16 | 40.61555 | -110.23075 | 37073 ft | 477 kts | 124° |
| 2026-05-08 04:16 | 40.57646 | -110.16017 | 37062 ft | 477 kts | 124° |
| 2026-05-08 04:17 | 40.53741 | -110.08981 | 37054 ft | 477 kts | 124° |
| 2026-05-08 04:17 | 40.49821 | -110.01932 | 37053 ft | 477 kts | 124° |
| 2026-05-08 04:18 | 40.46562 | -109.96086 | 37053 ft | 477 kts | 124° |
| 2026-05-08 04:18 | 40.41970 | -109.87866 | 37053 ft | 477 kts | 124° |
| 2026-05-08 04:19 | 40.38660 | -109.81953 | 37053 ft | 477 kts | 124° |
| 2026-05-08 04:19 | 40.34734 | -109.74954 | 37053 ft | 477 kts | 124° |
| 2026-05-08 04:20 | 40.30814 | -109.67964 | 37053 ft | 477 kts | 124° |
| 2026-05-08 04:20 | 40.26858 | -109.60907 | 37053 ft | 477 kts | 124° |
| 2026-05-08 04:21 | 40.22877 | -109.53864 | 37053 ft | 477 kts | 124° |
| 2026-05-08 04:21 | 40.18938 | -109.46923 | 37053 ft | 477 kts | 124° |
| 2026-05-08 04:22 | 40.14981 | -109.39964 | 37053 ft | 477 kts | 124° |
| 2026-05-08 04:22 | 40.11102 | -109.32956 | 37053 ft | 476 kts | 121° |
| 2026-05-08 04:23 | 40.07579 | -109.25648 | 37056 ft | 476 kts | 120° |
| 2026-05-08 04:23 | 40.04062 | -109.18339 | 37073 ft | 478 kts | 122° |
| 2026-05-08 04:24 | 40.00460 | -109.10955 | 37085 ft | 483 kts | 123° |
| 2026-05-08 04:24 | 39.96839 | -109.03617 | 37083 ft | 480 kts | 121° |
| 2026-05-08 04:25 | 39.93295 | -108.96362 | 37103 ft | 465 kts | 122° |
| 2026-05-08 04:25 | 39.91609 | -108.92885 | 37094 ft | 444 kts | 122° |
| 2026-05-08 04:25 | 39.89978 | -108.89550 | 37090 ft | 433 kts | 121° |
| 2026-05-08 04:26 | 39.86709 | -108.82887 | 37097 ft | 443 kts | 119° |
| 2026-05-08 04:26 | 39.83362 | -108.76067 | 37109 ft | 453 kts | 119° |
| 2026-05-08 04:27 | 39.79905 | -108.69051 | 37118 ft | 462 kts | 119° |
| 2026-05-08 04:27 | 39.76437 | -108.62036 | 37121 ft | 461 kts | 119° |
| 2026-05-08 04:28 | 39.72985 | -108.55075 | 37119 ft | 456 kts | 119° |
| 2026-05-08 04:28 | 39.69547 | -108.48157 | 37120 ft | 459 kts | 120° |
| 2026-05-08 04:29 | 39.66062 | -108.41164 | 37120 ft | 464 kts | 120° |
| 2026-05-08 04:29 | 39.62544 | -108.34120 | 37121 ft | 463 kts | 120° |
| 2026-05-08 04:30 | 39.59043 | -108.27126 | 37120 ft | 463 kts | 120° |
| 2026-05-08 04:30 | 39.55525 | -108.20113 | 37118 ft | 462 kts | 120° |
| 2026-05-08 04:31 | 39.51962 | -108.13027 | 37115 ft | 461 kts | 120° |
| 2026-05-08 04:31 | 39.48516 | -108.06187 | 37115 ft | 461 kts | 120° |
| 2026-05-08 04:32 | 39.44991 | -107.99207 | 37111 ft | 461 kts | 120° |
| 2026-05-08 04:32 | 39.41480 | -107.92269 | 37111 ft | 461 kts | 120° |
| 2026-05-08 04:33 | 39.37945 | -107.85298 | 37113 ft | 461 kts | 120° |
| 2026-05-08 04:33 | 39.34432 | -107.78386 | 37112 ft | 461 kts | 120° |
| 2026-05-08 04:34 | 39.30915 | -107.71481 | 37112 ft | 461 kts | 120° |
| 2026-05-08 04:34 | 39.27396 | -107.64574 | 37111 ft | 461 kts | 120° |
| 2026-05-08 04:35 | 39.23865 | -107.57625 | 37111 ft | 461 kts | 120° |
| 2026-05-08 04:35 | 39.20344 | -107.50760 | 37121 ft | 452 kts | 120° |
| 2026-05-08 04:36 | 39.16880 | -107.44034 | 37134 ft | 437 kts | 120° |
| 2026-05-08 04:36 | 39.13514 | -107.37493 | 37147 ft | 428 kts | 123° |
| 2026-05-08 04:37 | 39.10228 | -107.31176 | 37148 ft | 420 kts | 121° |
| 2026-05-08 04:37 | 39.06899 | -107.24915 | 37171 ft | 429 kts | 120° |
| 2026-05-08 04:38 | 39.03503 | -107.18543 | 37171 ft | 436 kts | 120° |
| 2026-05-08 04:38 | 39.00078 | -107.12131 | 37188 ft | 431 kts | 121° |
| 2026-05-08 04:39 | 38.96710 | -107.05813 | 37206 ft | 427 kts | 120° |
| 2026-05-08 04:39 | 38.93935 | -107.00579 | 37216 ft | 428 kts | 120° |
| 2026-05-08 04:40 | 38.90056 | -106.93315 | 37215 ft | 417 kts | 124° |
| 2026-05-08 04:40 | 38.87321 | -106.88245 | 37213 ft | 411 kts | 124° |
| 2026-05-08 04:41 | 38.84013 | -106.82143 | 37195 ft | 420 kts | 120° |
| 2026-05-08 04:41 | 38.80628 | -106.75865 | 37222 ft | 433 kts | 119° |
| 2026-05-08 04:42 | 38.77185 | -106.69433 | 37228 ft | 443 kts | 119° |
| 2026-05-08 04:42 | 38.73683 | -106.62869 | 37230 ft | 450 kts | 119° |
| 2026-05-08 04:43 | 38.70173 | -106.56310 | 37219 ft | 442 kts | 119° |
| 2026-05-08 04:43 | 38.66729 | -106.49888 | 37218 ft | 436 kts | 119° |
| 2026-05-08 04:44 | 38.63258 | -106.43431 | 37210 ft | 442 kts | 119° |
| 2026-05-08 04:44 | 38.59749 | -106.36913 | 37203 ft | 447 kts | 119° |
| 2026-05-08 04:45 | 38.56253 | -106.30354 | 37184 ft | 451 kts | 119° |
| 2026-05-08 04:45 | 38.52664 | -106.23660 | 37198 ft | 461 kts | 119° |
| 2026-05-08 04:46 | 38.49038 | -106.16914 | 37219 ft | 456 kts | 121° |
| 2026-05-08 04:46 | 38.45418 | -106.10197 | 37174 ft | 466 kts | 122° |
| 2026-05-08 04:47 | 38.41682 | -106.03304 | 37176 ft | 478 kts | 122° |
| 2026-05-08 04:47 | 38.37873 | -105.96247 | 37177 ft | 489 kts | 126° |
| 2026-05-08 04:48 | 38.33956 | -105.89116 | 37174 ft | 492 kts | 123° |
| 2026-05-08 04:48 | 38.30054 | -105.81955 | 37169 ft | 486 kts | 121° |
| 2026-05-08 04:49 | 38.26224 | -105.74933 | 37167 ft | 483 kts | 121° |
| 2026-05-08 04:49 | 38.22382 | -105.67911 | 37163 ft | 484 kts | 121° |
| 2026-05-08 04:50 | 38.18556 | -105.60935 | 37161 ft | 483 kts | 121° |
| 2026-05-08 04:50 | 38.14707 | -105.53933 | 37157 ft | 484 kts | 122° |
| 2026-05-08 04:51 | 38.10826 | -105.46888 | 37151 ft | 484 kts | 122° |
| 2026-05-08 04:51 | 38.06955 | -105.39877 | 37128 ft | 489 kts | 122° |
| 2026-05-08 04:52 | 38.03047 | -105.32817 | 37126 ft | 488 kts | 122° |
| 2026-05-08 04:52 | 37.99161 | -105.25810 | 37125 ft | 487 kts | 122° |
| 2026-05-08 04:53 | 37.95257 | -105.18782 | 37112 ft | 490 kts | 123° |
| 2026-05-08 04:53 | 37.91332 | -105.11736 | 37101 ft | 490 kts | 123° |
| 2026-05-08 04:54 | 37.87375 | -105.04647 | 37093 ft | 491 kts | 123° |
| 2026-05-08 04:54 | 37.83443 | -104.97609 | 37090 ft | 490 kts | 123° |
| 2026-05-08 04:55 | 37.79498 | -104.90543 | 37069 ft | 495 kts | 124° |
| 2026-05-08 04:55 | 37.75516 | -104.83435 | 37054 ft | 497 kts | 125° |
| 2026-05-08 04:56 | 37.71491 | -104.76295 | 37048 ft | 496 kts | 125° |
| 2026-05-08 04:56 | 37.67488 | -104.69217 | 37056 ft | 496 kts | 125° |
| 2026-05-08 04:57 | 37.63482 | -104.62143 | 37054 ft | 496 kts | 125° |
| 2026-05-08 04:57 | 37.59449 | -104.55100 | 37059 ft | 496 kts | 126° |
| 2026-05-08 04:58 | 37.55378 | -104.48075 | 37072 ft | 497 kts | 126° |
| 2026-05-08 04:58 | 37.51303 | -104.41058 | 37078 ft | 497 kts | 126° |
| 2026-05-08 04:59 | 37.47197 | -104.34003 | 37075 ft | 497 kts | 126° |
| 2026-05-08 04:59 | 37.43117 | -104.27003 | 37076 ft | 497 kts | 127° |
| 2026-05-08 05:00 | 37.39051 | -104.19993 | 37079 ft | 497 kts | 126° |
| 2026-05-08 05:00 | 37.34985 | -104.12989 | 37075 ft | 497 kts | 126° |
| 2026-05-08 05:01 | 37.30914 | -104.06009 | 37077 ft | 497 kts | 126° |
| 2026-05-08 05:01 | 37.26827 | -103.99023 | 37076 ft | 497 kts | 127° |
| 2026-05-08 05:02 | 37.22739 | -103.92051 | 37078 ft | 497 kts | 127° |
| 2026-05-08 05:02 | 37.18613 | -103.85034 | 37078 ft | 497 kts | 127° |
| 2026-05-08 05:03 | 37.14508 | -103.78067 | 37081 ft | 498 kts | 127° |
| 2026-05-08 05:03 | 37.10389 | -103.71091 | 37083 ft | 499 kts | 127° |
| 2026-05-08 05:04 | 37.06262 | -103.64116 | 37082 ft | 499 kts | 127° |
| 2026-05-08 05:04 | 37.02127 | -103.57135 | 37078 ft | 500 kts | 128° |
| 2026-05-08 05:05 | 36.97953 | -103.50114 | 37076 ft | 500 kts | 128° |
| 2026-05-08 05:05 | 36.93804 | -103.43147 | 37073 ft | 500 kts | 128° |
| 2026-05-08 05:06 | 36.89672 | -103.36170 | 37069 ft | 500 kts | 128° |
| 2026-05-08 05:06 | 36.85507 | -103.29196 | 37058 ft | 496 kts | 130° |
| 2026-05-08 05:07 | 36.81379 | -103.22330 | 37058 ft | 496 kts | 130° |
| 2026-05-08 05:07 | 36.77213 | -103.15406 | 37061 ft | 498 kts | 130° |
| 2026-05-08 05:08 | 36.73021 | -103.08546 | 37054 ft | 495 kts | 134° |
| 2026-05-08 05:08 | 36.68418 | -103.02197 | 37051 ft | 490 kts | 137° |
| 2026-05-08 05:09 | 36.63776 | -102.95955 | 37051 ft | 492 kts | 137° |
| 2026-05-08 05:09 | 36.59156 | -102.89719 | 37051 ft | 490 kts | 137° |
| 2026-05-08 05:10 | 36.52164 | -102.80283 | 37051 ft | 502 kts | 135° |
| 2026-05-08 05:11 | 36.47395 | -102.73786 | 37050 ft | 508 kts | 135° |
| 2026-05-08 05:11 | 36.42663 | -102.67339 | 37050 ft | 503 kts | 136° |
| 2026-05-08 05:12 | 36.37913 | -102.60937 | 37049 ft | 504 kts | 132° |
| 2026-05-08 05:12 | 36.33143 | -102.54486 | 37049 ft | 511 kts | 130° |
| 2026-05-08 05:13 | 36.28342 | -102.47982 | 37049 ft | 512 kts | 131° |
| 2026-05-08 05:13 | 36.23500 | -102.41455 | 37049 ft | 511 kts | 131° |
| 2026-05-08 05:14 | 36.18682 | -102.34969 | 37043 ft | 514 kts | 132° |
| 2026-05-08 05:14 | 36.13831 | -102.28458 | 37043 ft | 514 kts | 133° |
| 2026-05-08 05:15 | 36.08975 | -102.21995 | 37045 ft | 512 kts | 131° |
| 2026-05-08 05:15 | 36.04183 | -102.15536 | 37044 ft | 508 kts | 135° |
| 2026-05-08 05:16 | 35.99453 | -102.09191 | 37031 ft | 492 kts | 139° |
| 2026-05-08 05:16 | 35.94839 | -102.03079 | 37025 ft | 485 kts | 139° |
| 2026-05-08 05:17 | 35.90254 | -101.97006 | 37029 ft | 485 kts | 139° |
| 2026-05-08 05:17 | 35.85651 | -101.90913 | 37026 ft | 486 kts | 140° |
| 2026-05-08 05:18 | 35.81047 | -101.84826 | 37027 ft | 486 kts | 140° |
| 2026-05-08 05:18 | 35.76448 | -101.78755 | 37026 ft | 486 kts | 140° |
| 2026-05-08 05:19 | 35.71838 | -101.72677 | 37025 ft | 486 kts | 140° |
| 2026-05-08 05:19 | 35.67202 | -101.66574 | 37029 ft | 486 kts | 140° |
| 2026-05-08 05:20 | 35.62550 | -101.60464 | 37031 ft | 487 kts | 140° |
| 2026-05-08 05:20 | 35.57935 | -101.54413 | 37029 ft | 486 kts | 140° |
| 2026-05-08 05:21 | 35.54063 | -101.49345 | 37029 ft | 486 kts | 140° |
| 2026-05-08 05:21 | 35.49362 | -101.43201 | 37035 ft | 487 kts | 141° |
| 2026-05-08 05:22 | 35.44703 | -101.37123 | 37042 ft | 487 kts | 141° |
| 2026-05-08 05:22 | 35.40061 | -101.31078 | 37039 ft | 487 kts | 141° |
| 2026-05-08 05:23 | 35.35425 | -101.25051 | 37039 ft | 487 kts | 141° |
| 2026-05-08 05:23 | 35.30755 | -101.18991 | 37046 ft | 487 kts | 141° |
| 2026-05-08 05:24 | 35.26074 | -101.12929 | 37047 ft | 487 kts | 141° |
| 2026-05-08 05:24 | 35.21422 | -101.06914 | 37045 ft | 487 kts | 141° |
| 2026-05-08 05:25 | 35.16743 | -101.00875 | 37046 ft | 487 kts | 141° |
| 2026-05-08 05:25 | 35.12049 | -100.94827 | 37043 ft | 487 kts | 141° |
| 2026-05-08 05:26 | 35.07356 | -100.88793 | 37043 ft | 487 kts | 141° |
| 2026-05-08 05:26 | 35.02664 | -100.82770 | 37046 ft | 487 kts | 141° |
| 2026-05-08 05:27 | 34.98004 | -100.76797 | 37044 ft | 487 kts | 141° |
| 2026-05-08 05:27 | 34.93326 | -100.70813 | 37037 ft | 490 kts | 141° |
| 2026-05-08 05:28 | 34.88567 | -100.64737 | 37036 ft | 489 kts | 141° |
| 2026-05-08 05:28 | 34.83836 | -100.58706 | 37037 ft | 488 kts | 141° |
| 2026-05-08 05:29 | 34.79139 | -100.52730 | 37033 ft | 490 kts | 142° |
| 2026-05-08 05:29 | 34.74418 | -100.46734 | 37029 ft | 493 kts | 142° |
| 2026-05-08 05:30 | 34.69652 | -100.40692 | 37030 ft | 492 kts | 142° |
| 2026-05-08 05:30 | 34.64934 | -100.34720 | 37031 ft | 491 kts | 142° |
| 2026-05-08 05:31 | 34.60157 | -100.28685 | 37028 ft | 492 kts | 142° |
| 2026-05-08 05:31 | 34.55419 | -100.22710 | 37027 ft | 492 kts | 142° |
| 2026-05-08 05:32 | 34.50677 | -100.16740 | 37027 ft | 492 kts | 142° |
| 2026-05-08 05:32 | 34.45872 | -100.10701 | 37027 ft | 492 kts | 142° |
| 2026-05-08 05:33 | 34.41132 | -100.04754 | 37030 ft | 492 kts | 142° |
| 2026-05-08 05:33 | 34.36343 | -99.98757 | 37031 ft | 492 kts | 142° |
| 2026-05-08 05:34 | 34.31562 | -99.92780 | 37031 ft | 492 kts | 142° |
| 2026-05-08 05:34 | 34.26823 | -99.86866 | 37031 ft | 492 kts | 142° |
| 2026-05-08 05:35 | 34.22024 | -99.80886 | 37026 ft | 493 kts | 142° |
| 2026-05-08 05:35 | 34.17253 | -99.74954 | 37026 ft | 492 kts | 142° |
| 2026-05-08 05:36 | 34.13235 | -99.69964 | 37029 ft | 492 kts | 142° |
| 2026-05-08 05:36 | 34.08370 | -99.63933 | 37026 ft | 493 kts | 143° |
| 2026-05-08 05:37 | 34.03552 | -99.57970 | 37011 ft | 495 kts | 143° |
| 2026-05-08 05:37 | 33.98746 | -99.52033 | 37005 ft | 495 kts | 143° |
| 2026-05-08 05:38 | 33.93977 | -99.46152 | 37005 ft | 494 kts | 143° |
| 2026-05-08 05:38 | 33.89145 | -99.40202 | 37002 ft | 497 kts | 143° |
| 2026-05-08 05:39 | 33.84301 | -99.34250 | 37001 ft | 500 kts | 143° |
| 2026-05-08 05:39 | 33.79396 | -99.28232 | 37002 ft | 500 kts | 143° |
| 2026-05-08 05:40 | 33.74522 | -99.22261 | 36999 ft | 498 kts | 143° |
| 2026-05-08 05:40 | 33.69675 | -99.16335 | 37015 ft | 496 kts | 143° |
| 2026-05-08 05:41 | 33.64848 | -99.10443 | 37027 ft | 497 kts | 143° |
| 2026-05-08 05:41 | 33.59969 | -99.04498 | 37036 ft | 499 kts | 143° |
| 2026-05-08 05:42 | 33.55053 | -98.98520 | 37036 ft | 502 kts | 142° |
| 2026-05-08 05:42 | 33.50126 | -98.92536 | 37043 ft | 507 kts | 142° |
| 2026-05-08 05:43 | 33.45180 | -98.86540 | 37047 ft | 506 kts | 142° |
| 2026-05-08 05:43 | 33.40266 | -98.80592 | 37049 ft | 501 kts | 143° |
| 2026-05-08 05:44 | 33.35421 | -98.74736 | 37050 ft | 492 kts | 143° |
| 2026-05-08 05:44 | 33.30614 | -98.68939 | 37050 ft | 490 kts | 143° |
| 2026-05-08 05:45 | 33.25795 | -98.63137 | 37053 ft | 488 kts | 144° |
| 2026-05-08 05:45 | 33.21022 | -98.57400 | 37058 ft | 487 kts | 144° |
| 2026-05-08 05:46 | 33.16244 | -98.51664 | 37062 ft | 489 kts | 144° |
| 2026-05-08 05:46 | 33.11453 | -98.45925 | 37062 ft | 488 kts | 144° |
| 2026-05-08 05:47 | 33.06637 | -98.40162 | 37067 ft | 489 kts | 144° |
| 2026-05-08 05:47 | 33.01828 | -98.34419 | 37077 ft | 491 kts | 144° |
| 2026-05-08 05:48 | 32.97024 | -98.28690 | 37077 ft | 491 kts | 144° |
| 2026-05-08 05:48 | 32.92188 | -98.22911 | 37076 ft | 490 kts | 144° |
| 2026-05-08 05:49 | 32.87366 | -98.17174 | 37080 ft | 491 kts | 144° |
| 2026-05-08 05:49 | 32.82539 | -98.11453 | 37083 ft | 491 kts | 144° |
| 2026-05-08 05:50 | 32.77706 | -98.05737 | 37082 ft | 491 kts | 144° |
| 2026-05-08 05:50 | 32.72869 | -98.00020 | 37083 ft | 491 kts | 144° |
| 2026-05-08 05:51 | 32.68128 | -97.94161 | 37084 ft | 494 kts | 142° |
| 2026-05-08 05:51 | 32.63643 | -97.88536 | 37086 ft | 495 kts | 142° |
| 2026-05-08 05:52 | 32.58906 | -97.82617 | 37083 ft | 494 kts | 142° |
| 2026-05-08 05:52 | 32.54174 | -97.76721 | 37083 ft | 494 kts | 142° |
| 2026-05-08 05:53 | 32.49439 | -97.70836 | 37084 ft | 495 kts | 142° |
| 2026-05-08 05:53 | 32.44668 | -97.64875 | 37084 ft | 496 kts | 142° |
| 2026-05-08 05:54 | 32.39924 | -97.58966 | 37084 ft | 495 kts | 142° |
| 2026-05-08 05:54 | 32.35179 | -97.53074 | 37085 ft | 495 kts | 142° |
| 2026-05-08 05:55 | 32.30419 | -97.47178 | 37081 ft | 497 kts | 141° |
| 2026-05-08 05:55 | 32.25646 | -97.41277 | 37076 ft | 497 kts | 142° |
| 2026-05-08 05:56 | 32.20869 | -97.35380 | 37080 ft | 497 kts | 142° |
| 2026-05-08 05:56 | 32.16066 | -97.29463 | 37082 ft | 497 kts | 142° |
| 2026-05-08 05:57 | 32.11288 | -97.23588 | 37056 ft | 497 kts | 141° |
| 2026-05-08 05:57 | 32.06511 | -97.17720 | 37042 ft | 497 kts | 141° |
| 2026-05-08 05:58 | 32.01715 | -97.11841 | 37043 ft | 497 kts | 141° |
| 2026-05-08 05:58 | 31.96935 | -97.05990 | 37039 ft | 497 kts | 141° |
| 2026-05-08 05:59 | 31.92098 | -97.00078 | 37029 ft | 497 kts | 141° |
| 2026-05-08 05:59 | 31.87309 | -96.94234 | 37023 ft | 497 kts | 141° |
| 2026-05-08 05:59 | 31.84910 | -96.91310 | 36715 ft | 497 kts | 141° |
| 2026-05-08 06:00 | 31.82516 | -96.88394 | 36135 ft | 494 kts | 142° |
| 2026-05-08 06:00 | 31.80139 | -96.85500 | 35428 ft | 495 kts | 142° |
| 2026-05-08 06:00 | 31.77743 | -96.82584 | 34707 ft | 497 kts | 143° |
| 2026-05-08 06:00 | 31.75307 | -96.79623 | 33961 ft | 498 kts | 143° |
| 2026-05-08 06:01 | 31.72907 | -96.76692 | 33333 ft | 497 kts | 143° |
| 2026-05-08 06:01 | 31.70519 | -96.73786 | 32788 ft | 494 kts | 144° |
| 2026-05-08 06:01 | 31.68145 | -96.70907 | 32247 ft | 490 kts | 145° |
| 2026-05-08 06:01 | 31.65778 | -96.68043 | 31712 ft | 487 kts | 146° |
| 2026-05-08 06:02 | 31.63456 | -96.65243 | 31141 ft | 486 kts | 136° |
| 2026-05-08 06:02 | 31.61026 | -96.62336 | 30483 ft | 507 kts | 135° |
| 2026-05-08 06:02 | 31.58516 | -96.59290 | 29921 ft | 528 kts | 135° |
| 2026-05-08 06:02 | 31.55967 | -96.56210 | 29359 ft | 535 kts | 136° |
| 2026-05-08 06:03 | 31.53298 | -96.53234 | 28794 ft | 529 kts | 142° |
| 2026-05-08 06:03 | 31.50434 | -96.50518 | 28207 ft | 524 kts | 147° |
| 2026-05-08 06:03 | 31.47487 | -96.48231 | 27669 ft | 514 kts | 156° |
| 2026-05-08 06:03 | 31.44258 | -96.46337 | 27117 ft | 503 kts | 163° |
| 2026-05-08 06:04 | 31.41107 | -96.44642 | 26582 ft | 497 kts | 164° |
| 2026-05-08 06:04 | 31.38006 | -96.42882 | 26010 ft | 495 kts | 161° |
| 2026-05-08 06:04 | 31.34925 | -96.41006 | 25470 ft | 492 kts | 160° |
| 2026-05-08 06:04 | 31.31922 | -96.39162 | 24951 ft | 486 kts | 160° |
| 2026-05-08 06:05 | 31.28942 | -96.37340 | 24439 ft | 480 kts | 160° |
| 2026-05-08 06:05 | 31.26016 | -96.35561 | 24056 ft | 473 kts | 159° |
| 2026-05-08 06:05 | 31.23103 | -96.33778 | 23464 ft | 471 kts | 159° |
| 2026-05-08 06:05 | 31.20213 | -96.32015 | 22941 ft | 468 kts | 158° |
| 2026-05-08 06:06 | 31.17338 | -96.30261 | 22428 ft | 464 kts | 158° |
| 2026-05-08 06:06 | 31.14447 | -96.28502 | 21914 ft | 460 kts | 158° |
| 2026-05-08 06:06 | 31.11630 | -96.26790 | 21417 ft | 457 kts | 158° |
| 2026-05-08 06:06 | 31.08824 | -96.25087 | 20920 ft | 453 kts | 158° |
| 2026-05-08 06:07 | 31.06041 | -96.23398 | 20428 ft | 449 kts | 158° |
| 2026-05-08 06:07 | 31.03283 | -96.21726 | 19942 ft | 445 kts | 158° |
| 2026-05-08 06:07 | 31.00563 | -96.20076 | 19463 ft | 441 kts | 158° |
| 2026-05-08 06:07 | 30.97874 | -96.18388 | 18986 ft | 438 kts | 156° |
| 2026-05-08 06:08 | 30.95230 | -96.16665 | 18514 ft | 434 kts | 156° |
| 2026-05-08 06:08 | 30.92602 | -96.14959 | 18043 ft | 430 kts | 156° |
| 2026-05-08 06:08 | 30.89984 | -96.13269 | 17536 ft | 427 kts | 156° |
| 2026-05-08 06:08 | 30.87402 | -96.11607 | 17055 ft | 423 kts | 156° |
| 2026-05-08 06:09 | 30.84830 | -96.09950 | 16585 ft | 418 kts | 156° |
| 2026-05-08 06:09 | 30.82303 | -96.08325 | 16128 ft | 413 kts | 156° |
| 2026-05-08 06:09 | 30.79808 | -96.06722 | 15681 ft | 408 kts | 156° |
| 2026-05-08 06:09 | 30.77337 | -96.05136 | 15236 ft | 403 kts | 156° |
| 2026-05-08 06:10 | 30.74909 | -96.03579 | 14799 ft | 398 kts | 156° |
| 2026-05-08 06:10 | 30.73282 | -96.02537 | 14506 ft | 392 kts | 156° |
| 2026-05-08 06:10 | 30.70194 | -96.00554 | 13956 ft | 374 kts | 156° |
| 2026-05-08 06:10 | 30.67952 | -95.99116 | 13557 ft | 363 kts | 156° |
| 2026-05-08 06:11 | 30.65774 | -95.97720 | 13169 ft | 354 kts | 157° |
| 2026-05-08 06:11 | 30.63621 | -95.96343 | 12788 ft | 353 kts | 157° |
| 2026-05-08 06:11 | 30.62169 | -95.95414 | 12530 ft | 351 kts | 157° |
| 2026-05-08 06:11 | 30.59349 | -95.93612 | 12026 ft | 348 kts | 157° |
| 2026-05-08 06:12 | 30.57923 | -95.92702 | 11772 ft | 346 kts | 157° |
| 2026-05-08 06:12 | 30.55833 | -95.91368 | 11395 ft | 344 kts | 157° |
| 2026-05-08 06:12 | 30.53746 | -95.90037 | 11020 ft | 341 kts | 157° |
| 2026-05-08 06:12 | 30.51685 | -95.88723 | 10652 ft | 338 kts | 157° |
| 2026-05-08 06:13 | 30.49557 | -95.87613 | 10288 ft | 329 kts | 168° |
| 2026-05-08 06:13 | 30.47402 | -95.87035 | 10183 ft | 310 kts | 177° |
| 2026-05-08 06:13 | 30.45329 | -95.86714 | 10076 ft | 292 kts | 180° |
| 2026-05-08 06:13 | 30.43366 | -95.86482 | 9909 ft | 279 kts | 181° |
| 2026-05-08 06:14 | 30.41422 | -95.86274 | 9670 ft | 275 kts | 181° |
| 2026-05-08 06:14 | 30.39523 | -95.86055 | 9310 ft | 272 kts | 181° |
| 2026-05-08 06:14 | 30.37727 | -95.85852 | 9166 ft | 260 kts | 181° |
| 2026-05-08 06:14 | 30.35979 | -95.85655 | 9108 ft | 243 kts | 181° |
| 2026-05-08 06:15 | 30.34318 | -95.85467 | 9005 ft | 229 kts | 182° |
| 2026-05-08 06:15 | 30.32802 | -95.85296 | 8905 ft | 215 kts | 182° |
| 2026-05-08 06:15 | 30.31326 | -95.85130 | 8682 ft | 208 kts | 182° |
| 2026-05-08 06:15 | 30.29894 | -95.84969 | 8329 ft | 207 kts | 182° |
| 2026-05-08 06:16 | 30.28463 | -95.84808 | 7988 ft | 206 kts | 182° |
| 2026-05-08 06:16 | 30.27041 | -95.84649 | 7650 ft | 205 kts | 182° |
| 2026-05-08 06:16 | 30.25631 | -95.84490 | 7312 ft | 204 kts | 182° |
| 2026-05-08 06:16 | 30.24227 | -95.84333 | 6972 ft | 203 kts | 182° |
| 2026-05-08 06:17 | 30.21422 | -95.84013 | 6269 ft | 201 kts | 182° |
| 2026-05-08 06:17 | 30.20037 | -95.83852 | 5922 ft | 199 kts | 182° |
| 2026-05-08 06:17 | 30.19918 | -95.83838 | 5892 ft | 199 kts | 182° |
| 2026-05-08 06:31 | 30.18894 | -95.83720 | 5631 ft | 198 kts | 182° |
| 2026-05-08 06:31 | 30.17583 | -95.83568 | 5309 ft | 197 kts | 182° |
| 2026-05-08 06:31 | 30.16238 | -95.83412 | 5088 ft | 193 kts | 182° |
| 2026-05-08 06:31 | 30.14934 | -95.83261 | 4884 ft | 189 kts | 182° |
| 2026-05-08 06:32 | 30.13645 | -95.83112 | 4689 ft | 183 kts | 182° |
| 2026-05-08 06:32 | 30.12374 | -95.82966 | 4500 ft | 181 kts | 181° |
| 2026-05-08 06:32 | 30.11143 | -95.82823 | 4312 ft | 177 kts | 181° |
| 2026-05-08 06:32 | 30.09927 | -95.82682 | 4127 ft | 174 kts | 180° |
| 2026-05-08 06:33 | 30.08717 | -95.82545 | 3876 ft | 172 kts | 179° |
| 2026-05-08 06:33 | 30.07546 | -95.82412 | 3667 ft | 164 kts | 178° |
| 2026-05-08 06:33 | 30.06434 | -95.82286 | 3447 ft | 159 kts | 176° |
| 2026-05-08 06:33 | 30.05361 | -95.82163 | 3233 ft | 156 kts | 175° |
| 2026-05-08 06:34 | 30.04317 | -95.81854 | 2984 ft | 156 kts | 155° |
| 2026-05-08 06:34 | 30.03465 | -95.81084 | 2961 ft | 155 kts | 136° |
| 2026-05-08 06:34 | 30.02793 | -95.80119 | 2986 ft | 157 kts | 130° |
| 2026-05-08 06:34 | 30.02150 | -95.79076 | 2997 ft | 160 kts | 128° |
| 2026-05-08 06:35 | 30.01513 | -95.77999 | 2996 ft | 161 kts | 128° |
| 2026-05-08 06:35 | 30.00885 | -95.76935 | 2994 ft | 161 kts | 128° |
| 2026-05-08 06:35 | 30.00332 | -95.75805 | 2981 ft | 164 kts | 113° |
| 2026-05-08 06:35 | 30.00158 | -95.74496 | 2994 ft | 168 kts | 97° |
| 2026-05-08 06:36 | 30.00107 | -95.73136 | 2999 ft | 169 kts | 98° |
| 2026-05-08 06:36 | 30.00054 | -95.71764 | 2996 ft | 168 kts | 98° |
| 2026-05-08 06:36 | 30.00001 | -95.70416 | 2995 ft | 168 kts | 98° |
| 2026-05-08 06:36 | 29.99948 | -95.69069 | 2995 ft | 168 kts | 98° |
| 2026-05-08 06:37 | 29.99894 | -95.67721 | 2995 ft | 168 kts | 98° |
| 2026-05-08 06:37 | 29.99840 | -95.66375 | 2996 ft | 168 kts | 98° |
| 2026-05-08 06:37 | 29.99784 | -95.65014 | 2996 ft | 168 kts | 98° |
| 2026-05-08 06:37 | 29.99729 | -95.63671 | 2996 ft | 168 kts | 98° |
| 2026-05-08 06:38 | 29.99674 | -95.62326 | 2996 ft | 168 kts | 98° |
| 2026-05-08 06:38 | 29.99607 | -95.60973 | 2991 ft | 168 kts | 101° |
| 2026-05-08 06:38 | 29.99494 | -95.59646 | 2989 ft | 166 kts | 101° |
| 2026-05-08 06:38 | 29.99410 | -95.58300 | 2990 ft | 166 kts | 98° |
| 2026-05-08 06:39 | 29.99369 | -95.56971 | 2992 ft | 167 kts | 97° |
| 2026-05-08 06:39 | 29.99348 | -95.55636 | 2993 ft | 167 kts | 96° |
| 2026-05-08 06:39 | 29.99338 | -95.54294 | 2993 ft | 167 kts | 96° |
| 2026-05-08 06:39 | 29.99334 | -95.52966 | 3006 ft | 165 kts | 96° |
| 2026-05-08 06:40 | 29.99332 | -95.51668 | 2857 ft | 154 kts | 96° |
| 2026-05-08 06:40 | 29.99331 | -95.50471 | 2590 ft | 143 kts | 95° |
| 2026-05-08 06:40 | 29.99331 | -95.49363 | 2402 ft | 134 kts | 94° |
| 2026-05-08 06:40 | 29.99332 | -95.48324 | 2241 ft | 132 kts | 92° |
| 2026-05-08 06:41 | 29.99332 | -95.47247 | 2073 ft | 135 kts | 90° |
| 2026-05-08 06:41 | 29.99333 | -95.46171 | 1896 ft | 134 kts | 90° |
| 2026-05-08 06:41 | 29.99334 | -95.45109 | 1719 ft | 132 kts | 89° |
| 2026-05-08 06:41 | 29.99335 | -95.44056 | 1545 ft | 131 kts | 89° |
| 2026-05-08 06:42 | 29.99336 | -95.43010 | 1372 ft | 130 kts | 88° |
| 2026-05-08 06:42 | 29.99337 | -95.41970 | 1202 ft | 129 kts | 88° |
| 2026-05-08 06:42 | 29.99338 | -95.40933 | 1028 ft | 128 kts | 89° |
| 2026-05-08 06:42 | 29.99338 | -95.39916 | 861 ft | 129 kts | 89° |
| 2026-05-08 06:43 | 29.99339 | -95.38873 | 688 ft | 130 kts | 90° |
| 2026-05-08 06:43 | 29.99340 | -95.37819 | 514 ft | 131 kts | 90° |
| 2026-05-08 06:43 | 29.99341 | -95.36775 | 340 ft | 131 kts | 90° |
| 2026-05-08 06:43 | 29.99342 | -95.35720 | 160 ft | 131 kts | 90° |
| 2026-05-08 06:44 | 29.99351 | -95.34741 | 107 ft | 111 kts | 89° |
| 2026-05-08 06:44 | 29.99351 | -95.34077 | 105 ft | 53 kts | 91° |
| 2026-05-08 06:44 | 29.99274 | -95.33809 | 105 ft | 22 kts | 129° |
| 2026-05-08 06:44 | 29.99190 | -95.33679 | 105 ft | 19 kts | 130° |
| 2026-05-08 06:45 | 29.99084 | -95.33659 | 105 ft | 15 kts | 180° |
| 2026-05-08 06:45 | 29.98985 | -95.33659 | 105 ft | 13 kts | 180° |
| 2026-05-08 06:45 | 29.98898 | -95.33654 | 105 ft | 12 kts | 180° |
| 2026-05-08 06:45 | 29.98838 | -95.33654 | 105 ft | 0 kts | 180° |
| 2026-05-08 06:46 | 29.98830 | -95.33654 | 105 ft | 0 kts | 180° |